sensor_id;sensor_type;location;lat;lon;timestamp;P1;durP1;ratioP1;P2;durP2;ratioP2
6832;SDS011;3454;42.654;23.378;2023-08-12T00:00:23;3.45;;;2.42;;
6832;SDS011;3454;42.654;23.378;2023-08-12T00:03:08;3.80;;;2.60;;
6832;SDS011;3454;42.654;23.378;2023-08-12T00:05:33;3.33;;;2.20;;
6832;SDS011;3454;42.654;23.378;2023-08-12T00:08:00;3.65;;;2.63;;
6832;SDS011;3454;42.654;23.378;2023-08-12T00:10:26;3.13;;;2.70;;
6832;SDS011;3454;42.654;23.378;2023-08-12T00:12:52;2.65;;;2.33;;
6832;SDS011;3454;42.654;23.378;2023-08-12T00:15:17;2.97;;;2.70;;
6832;SDS011;3454;42.654;23.378;2023-08-12T00:17:44;2.38;;;2.17;;
6832;SDS011;3454;42.654;23.378;2023-08-12T00:20:10;3.65;;;2.30;;
6832;SDS011;3454;42.654;23.378;2023-08-12T00:22:36;2.58;;;2.20;;
6832;SDS011;3454;42.654;23.378;2023-08-12T00:25:02;2.85;;;2.42;;
6832;SDS011;3454;42.654;23.378;2023-08-12T00:27:28;2.95;;;2.30;;
6832;SDS011;3454;42.654;23.378;2023-08-12T00:29:54;2.53;;;2.33;;
6832;SDS011;3454;42.654;23.378;2023-08-12T00:32:20;2.70;;;2.45;;
6832;SDS011;3454;42.654;23.378;2023-08-12T00:34:47;2.50;;;2.20;;
6832;SDS011;3454;42.654;23.378;2023-08-12T00:37:13;3.10;;;2.28;;
6832;SDS011;3454;42.654;23.378;2023-08-12T00:39:40;2.70;;;2.40;;
6832;SDS011;3454;42.654;23.378;2023-08-12T00:42:05;6.10;;;2.47;;
6832;SDS011;3454;42.654;23.378;2023-08-12T00:44:31;2.90;;;2.60;;
6832;SDS011;3454;42.654;23.378;2023-08-12T00:46:56;2.67;;;2.38;;
6832;SDS011;3454;42.654;23.378;2023-08-12T00:49:22;2.60;;;2.40;;
6832;SDS011;3454;42.654;23.378;2023-08-12T00:51:49;3.55;;;2.30;;
6832;SDS011;3454;42.654;23.378;2023-08-12T00:54:16;2.83;;;2.55;;
6832;SDS011;3454;42.654;23.378;2023-08-12T00:56:42;3.78;;;2.33;;
6832;SDS011;3454;42.654;23.378;2023-08-12T00:59:08;2.95;;;2.38;;
6832;SDS011;3454;42.654;23.378;2023-08-12T01:01:35;2.50;;;2.08;;
6832;SDS011;3454;42.654;23.378;2023-08-12T01:04:05;2.42;;;2.20;;
6832;SDS011;3454;42.654;23.378;2023-08-12T01:06:31;2.28;;;2.10;;
6832;SDS011;3454;42.654;23.378;2023-08-12T01:08:57;2.35;;;2.15;;
6832;SDS011;3454;42.654;23.378;2023-08-12T01:11:28;4.38;;;2.45;;
6832;SDS011;3454;42.654;23.378;2023-08-12T01:16:56;3.22;;;2.38;;
6832;SDS011;3454;42.654;23.378;2023-08-12T01:19:29;4.57;;;2.15;;
6832;SDS011;3454;42.654;23.378;2023-08-12T01:21:59;4.40;;;2.40;;
6832;SDS011;3454;42.654;23.378;2023-08-12T01:24:27;4.20;;;2.58;;
6832;SDS011;3454;42.654;23.378;2023-08-12T01:27:00;2.30;;;2.10;;
6832;SDS011;3454;42.654;23.378;2023-08-12T01:29:26;4.10;;;2.50;;
6832;SDS011;3454;42.654;23.378;2023-08-12T01:31:55;3.30;;;2.42;;
6832;SDS011;3454;42.654;23.378;2023-08-12T01:34:44;3.33;;;2.10;;
6832;SDS011;3454;42.654;23.378;2023-08-12T01:37:23;2.42;;;2.15;;
6832;SDS011;3454;42.654;23.378;2023-08-12T01:39:52;3.17;;;2.38;;
6832;SDS011;3454;42.654;23.378;2023-08-12T01:42:20;3.60;;;2.10;;
6832;SDS011;3454;42.654;23.378;2023-08-12T01:44:46;3.67;;;2.58;;
6832;SDS011;3454;42.654;23.378;2023-08-12T01:47:13;2.55;;;2.35;;
6832;SDS011;3454;42.654;23.378;2023-08-12T01:49:39;5.28;;;2.03;;
6832;SDS011;3454;42.654;23.378;2023-08-12T01:52:05;3.10;;;2.13;;
6832;SDS011;3454;42.654;23.378;2023-08-12T01:54:30;3.13;;;2.40;;
6832;SDS011;3454;42.654;23.378;2023-08-12T01:57:03;2.22;;;2.03;;
6832;SDS011;3454;42.654;23.378;2023-08-12T01:59:31;2.72;;;1.90;;
6832;SDS011;3454;42.654;23.378;2023-08-12T02:01:58;3.08;;;2.50;;
6832;SDS011;3454;42.654;23.378;2023-08-12T02:04:23;4.40;;;1.90;;
6832;SDS011;3454;42.654;23.378;2023-08-12T02:06:49;2.42;;;2.22;;
6832;SDS011;3454;42.654;23.378;2023-08-12T02:09:15;2.15;;;1.90;;
6832;SDS011;3454;42.654;23.378;2023-08-12T02:11:40;2.08;;;1.98;;
6832;SDS011;3454;42.654;23.378;2023-08-12T02:14:12;2.72;;;2.33;;
6832;SDS011;3454;42.654;23.378;2023-08-12T02:16:38;2.75;;;2.30;;
6832;SDS011;3454;42.654;23.378;2023-08-12T02:19:05;2.40;;;2.20;;
6832;SDS011;3454;42.654;23.378;2023-08-12T02:21:31;2.55;;;2.30;;
6832;SDS011;3454;42.654;23.378;2023-08-12T02:23:56;2.83;;;2.00;;
6832;SDS011;3454;42.654;23.378;2023-08-12T02:26:22;2.10;;;1.92;;
6832;SDS011;3454;42.654;23.378;2023-08-12T02:28:48;2.13;;;1.92;;
6832;SDS011;3454;42.654;23.378;2023-08-12T02:31:15;2.65;;;2.35;;
6832;SDS011;3454;42.654;23.378;2023-08-12T02:33:41;2.00;;;1.90;;
6832;SDS011;3454;42.654;23.378;2023-08-12T02:36:07;4.82;;;1.95;;
6832;SDS011;3454;42.654;23.378;2023-08-12T02:38:33;2.58;;;2.38;;
6832;SDS011;3454;42.654;23.378;2023-08-12T02:40:59;2.78;;;2.28;;
6832;SDS011;3454;42.654;23.378;2023-08-12T02:43:24;4.55;;;1.90;;
6832;SDS011;3454;42.654;23.378;2023-08-12T02:45:51;2.20;;;2.00;;
6832;SDS011;3454;42.654;23.378;2023-08-12T02:48:17;2.60;;;2.22;;
6832;SDS011;3454;42.654;23.378;2023-08-12T02:50:42;2.05;;;1.83;;
6832;SDS011;3454;42.654;23.378;2023-08-12T02:53:08;3.38;;;2.63;;
6832;SDS011;3454;42.654;23.378;2023-08-12T02:55:33;3.67;;;2.22;;
6832;SDS011;3454;42.654;23.378;2023-08-12T02:57:59;3.55;;;2.65;;
6832;SDS011;3454;42.654;23.378;2023-08-12T03:00:27;3.17;;;2.60;;
6832;SDS011;3454;42.654;23.378;2023-08-12T03:02:53;3.15;;;2.28;;
6832;SDS011;3454;42.654;23.378;2023-08-12T03:05:20;4.22;;;2.30;;
6832;SDS011;3454;42.654;23.378;2023-08-12T03:08:07;3.70;;;2.67;;
6832;SDS011;3454;42.654;23.378;2023-08-12T03:10:35;4.63;;;2.70;;
6832;SDS011;3454;42.654;23.378;2023-08-12T03:13:01;4.35;;;2.28;;
6832;SDS011;3454;42.654;23.378;2023-08-12T03:15:27;3.22;;;2.47;;
6832;SDS011;3454;42.654;23.378;2023-08-12T03:17:53;5.80;;;3.13;;
6832;SDS011;3454;42.654;23.378;2023-08-12T03:20:19;6.20;;;2.90;;
6832;SDS011;3454;42.654;23.378;2023-08-12T03:22:44;11.38;;;3.40;;
6832;SDS011;3454;42.654;23.378;2023-08-12T03:25:10;6.00;;;3.60;;
6832;SDS011;3454;42.654;23.378;2023-08-12T03:27:35;5.70;;;3.17;;
6832;SDS011;3454;42.654;23.378;2023-08-12T03:30:01;6.72;;;3.28;;
6832;SDS011;3454;42.654;23.378;2023-08-12T03:32:26;5.55;;;3.03;;
6832;SDS011;3454;42.654;23.378;2023-08-12T03:34:52;7.18;;;3.30;;
6832;SDS011;3454;42.654;23.378;2023-08-12T03:37:20;6.38;;;3.30;;
6832;SDS011;3454;42.654;23.378;2023-08-12T03:39:46;5.03;;;3.10;;
6832;SDS011;3454;42.654;23.378;2023-08-12T03:42:11;6.53;;;3.28;;
6832;SDS011;3454;42.654;23.378;2023-08-12T03:44:37;7.53;;;2.90;;
6832;SDS011;3454;42.654;23.378;2023-08-12T03:47:02;5.38;;;2.90;;
6832;SDS011;3454;42.654;23.378;2023-08-12T03:49:28;6.35;;;3.30;;
6832;SDS011;3454;42.654;23.378;2023-08-12T03:51:54;4.22;;;2.90;;
6832;SDS011;3454;42.654;23.378;2023-08-12T03:54:19;4.00;;;3.20;;
6832;SDS011;3454;42.654;23.378;2023-08-12T03:56:45;5.22;;;2.97;;
6832;SDS011;3454;42.654;23.378;2023-08-12T03:59:10;5.45;;;3.17;;
6832;SDS011;3454;42.654;23.378;2023-08-12T04:01:36;4.72;;;2.95;;
6832;SDS011;3454;42.654;23.378;2023-08-12T04:04:02;10.75;;;3.97;;
6832;SDS011;3454;42.654;23.378;2023-08-12T04:06:29;9.05;;;3.88;;
6832;SDS011;3454;42.654;23.378;2023-08-12T04:08:54;7.47;;;3.45;;
6832;SDS011;3454;42.654;23.378;2023-08-12T04:11:20;4.22;;;3.28;;
6832;SDS011;3454;42.654;23.378;2023-08-12T04:13:45;9.13;;;3.70;;
6832;SDS011;3454;42.654;23.378;2023-08-12T04:16:11;5.45;;;3.88;;
6832;SDS011;3454;42.654;23.378;2023-08-12T04:18:36;7.32;;;4.05;;
6832;SDS011;3454;42.654;23.378;2023-08-12T04:21:02;4.47;;;3.80;;
6832;SDS011;3454;42.654;23.378;2023-08-12T04:23:27;5.38;;;3.50;;
6832;SDS011;3454;42.654;23.378;2023-08-12T04:25:53;5.03;;;3.20;;
6832;SDS011;3454;42.654;23.378;2023-08-12T04:28:19;5.15;;;3.75;;
6832;SDS011;3454;42.654;23.378;2023-08-12T04:30:45;8.85;;;3.80;;
6832;SDS011;3454;42.654;23.378;2023-08-12T04:33:12;4.72;;;3.42;;
6832;SDS011;3454;42.654;23.378;2023-08-12T04:35:39;5.20;;;3.33;;
6832;SDS011;3454;42.654;23.378;2023-08-12T04:38:05;5.45;;;3.20;;
6832;SDS011;3454;42.654;23.378;2023-08-12T04:40:31;6.00;;;3.45;;
6832;SDS011;3454;42.654;23.378;2023-08-12T04:43:00;5.63;;;3.08;;
6832;SDS011;3454;42.654;23.378;2023-08-12T04:45:27;5.13;;;2.90;;
6832;SDS011;3454;42.654;23.378;2023-08-12T04:47:52;4.65;;;2.92;;
6832;SDS011;3454;42.654;23.378;2023-08-12T04:50:18;7.65;;;3.47;;
6832;SDS011;3454;42.654;23.378;2023-08-12T04:52:44;4.95;;;3.53;;
6832;SDS011;3454;42.654;23.378;2023-08-12T04:55:11;7.60;;;3.70;;
6832;SDS011;3454;42.654;23.378;2023-08-12T04:57:37;5.88;;;3.40;;
6832;SDS011;3454;42.654;23.378;2023-08-12T05:00:03;6.28;;;3.40;;
6832;SDS011;3454;42.654;23.378;2023-08-12T05:02:33;5.72;;;3.78;;
6832;SDS011;3454;42.654;23.378;2023-08-12T05:04:58;5.57;;;3.20;;
6832;SDS011;3454;42.654;23.378;2023-08-12T05:07:24;8.23;;;3.17;;
6832;SDS011;3454;42.654;23.378;2023-08-12T05:09:49;10.52;;;3.92;;
6832;SDS011;3454;42.654;23.378;2023-08-12T05:12:15;9.27;;;3.55;;
6832;SDS011;3454;42.654;23.378;2023-08-12T05:14:40;7.40;;;3.75;;
6832;SDS011;3454;42.654;23.378;2023-08-12T05:17:06;4.80;;;3.55;;
6832;SDS011;3454;42.654;23.378;2023-08-12T05:19:32;6.78;;;3.70;;
6832;SDS011;3454;42.654;23.378;2023-08-12T05:21:59;6.35;;;3.30;;
6832;SDS011;3454;42.654;23.378;2023-08-12T05:24:51;6.75;;;3.50;;
6832;SDS011;3454;42.654;23.378;2023-08-12T05:27:16;4.60;;;3.53;;
6832;SDS011;3454;42.654;23.378;2023-08-12T05:29:42;3.17;;;2.80;;
6832;SDS011;3454;42.654;23.378;2023-08-12T05:32:07;4.97;;;3.20;;
6832;SDS011;3454;42.654;23.378;2023-08-12T05:34:33;7.35;;;4.15;;
6832;SDS011;3454;42.654;23.378;2023-08-12T05:36:58;7.38;;;3.92;;
6832;SDS011;3454;42.654;23.378;2023-08-12T05:39:24;5.88;;;3.60;;
6832;SDS011;3454;42.654;23.378;2023-08-12T05:41:49;5.50;;;3.80;;
6832;SDS011;3454;42.654;23.378;2023-08-12T05:44:16;5.82;;;3.90;;
6832;SDS011;3454;42.654;23.378;2023-08-12T05:46:41;5.50;;;3.70;;
6832;SDS011;3454;42.654;23.378;2023-08-12T05:49:06;3.90;;;3.38;;
6832;SDS011;3454;42.654;23.378;2023-08-12T05:51:32;4.30;;;3.08;;
6832;SDS011;3454;42.654;23.378;2023-08-12T05:53:58;4.00;;;2.60;;
6832;SDS011;3454;42.654;23.378;2023-08-12T05:56:24;4.50;;;3.13;;
6832;SDS011;3454;42.654;23.378;2023-08-12T05:58:50;4.13;;;2.70;;
6832;SDS011;3454;42.654;23.378;2023-08-12T06:01:16;3.47;;;2.70;;
6832;SDS011;3454;42.654;23.378;2023-08-12T06:03:42;3.53;;;3.03;;
6832;SDS011;3454;42.654;23.378;2023-08-12T06:06:08;4.55;;;2.63;;
6832;SDS011;3454;42.654;23.378;2023-08-12T06:08:33;5.43;;;2.90;;
6832;SDS011;3454;42.654;23.378;2023-08-12T06:10:59;2.67;;;2.25;;
6832;SDS011;3454;42.654;23.378;2023-08-12T06:13:25;3.33;;;2.58;;
6832;SDS011;3454;42.654;23.378;2023-08-12T06:15:50;3.53;;;2.33;;
6832;SDS011;3454;42.654;23.378;2023-08-12T06:18:16;4.47;;;2.33;;
6832;SDS011;3454;42.654;23.378;2023-08-12T06:20:42;5.50;;;2.30;;
6832;SDS011;3454;42.654;23.378;2023-08-12T06:23:07;2.95;;;2.30;;
6832;SDS011;3454;42.654;23.378;2023-08-12T06:25:33;2.83;;;2.30;;
6832;SDS011;3454;42.654;23.378;2023-08-12T06:28:01;4.60;;;2.67;;
6832;SDS011;3454;42.654;23.378;2023-08-12T06:30:36;5.18;;;2.92;;
6832;SDS011;3454;42.654;23.378;2023-08-12T06:33:02;2.80;;;2.47;;
6832;SDS011;3454;42.654;23.378;2023-08-12T06:35:28;3.42;;;2.88;;
6832;SDS011;3454;42.654;23.378;2023-08-12T06:37:54;2.97;;;2.60;;
6832;SDS011;3454;42.654;23.378;2023-08-12T06:40:19;3.72;;;2.92;;
6832;SDS011;3454;42.654;23.378;2023-08-12T06:42:45;5.28;;;2.22;;
6832;SDS011;3454;42.654;23.378;2023-08-12T06:45:10;3.72;;;3.30;;
6832;SDS011;3454;42.654;23.378;2023-08-12T06:47:37;3.53;;;3.13;;
6832;SDS011;3454;42.654;23.378;2023-08-12T06:50:02;19.85;;;17.75;;
6832;SDS011;3454;42.654;23.378;2023-08-12T06:52:28;6.28;;;5.70;;
6832;SDS011;3454;42.654;23.378;2023-08-12T06:54:54;8.25;;;3.72;;
6832;SDS011;3454;42.654;23.378;2023-08-12T06:57:19;7.65;;;4.25;;
6832;SDS011;3454;42.654;23.378;2023-08-12T06:59:45;5.05;;;4.10;;
6832;SDS011;3454;42.654;23.378;2023-08-12T07:02:11;4.82;;;3.45;;
6832;SDS011;3454;42.654;23.378;2023-08-12T07:04:36;7.18;;;3.47;;
6832;SDS011;3454;42.654;23.378;2023-08-12T07:07:02;5.13;;;3.38;;
6832;SDS011;3454;42.654;23.378;2023-08-12T07:09:27;3.72;;;3.28;;
6832;SDS011;3454;42.654;23.378;2023-08-12T07:11:53;4.30;;;2.80;;
6832;SDS011;3454;42.654;23.378;2023-08-12T07:14:18;8.50;;;2.67;;
6832;SDS011;3454;42.654;23.378;2023-08-12T07:16:43;5.60;;;3.03;;
6832;SDS011;3454;42.654;23.378;2023-08-12T07:19:09;4.38;;;2.67;;
6832;SDS011;3454;42.654;23.378;2023-08-12T07:21:35;4.43;;;2.63;;
6832;SDS011;3454;42.654;23.378;2023-08-12T07:24:00;4.50;;;2.65;;
6832;SDS011;3454;42.654;23.378;2023-08-12T07:26:25;3.10;;;2.70;;
6832;SDS011;3454;42.654;23.378;2023-08-12T07:28:51;6.45;;;4.15;;
6832;SDS011;3454;42.654;23.378;2023-08-12T07:31:17;3.72;;;2.67;;
6832;SDS011;3454;42.654;23.378;2023-08-12T07:33:43;3.70;;;2.92;;
6832;SDS011;3454;42.654;23.378;2023-08-12T07:36:09;3.42;;;3.13;;
6832;SDS011;3454;42.654;23.378;2023-08-12T07:38:34;6.97;;;4.47;;
6832;SDS011;3454;42.654;23.378;2023-08-12T07:41:01;5.88;;;3.50;;
6832;SDS011;3454;42.654;23.378;2023-08-12T07:43:27;4.78;;;3.05;;
6832;SDS011;3454;42.654;23.378;2023-08-12T07:45:53;3.35;;;2.88;;
6832;SDS011;3454;42.654;23.378;2023-08-12T07:48:19;19.50;;;14.80;;
6832;SDS011;3454;42.654;23.378;2023-08-12T07:50:45;16.95;;;9.32;;
6832;SDS011;3454;42.654;23.378;2023-08-12T07:53:13;13.98;;;9.07;;
6832;SDS011;3454;42.654;23.378;2023-08-12T07:55:40;26.63;;;14.55;;
6832;SDS011;3454;42.654;23.378;2023-08-12T07:58:06;25.88;;;13.68;;
6832;SDS011;3454;42.654;23.378;2023-08-12T08:00:32;25.75;;;13.18;;
6832;SDS011;3454;42.654;23.378;2023-08-12T08:02:58;38.50;;;18.90;;
6832;SDS011;3454;42.654;23.378;2023-08-12T08:05:24;10.07;;;6.95;;
6832;SDS011;3454;42.654;23.378;2023-08-12T08:07:49;20.27;;;12.88;;
6832;SDS011;3454;42.654;23.378;2023-08-12T08:10:14;12.15;;;6.75;;
6832;SDS011;3454;42.654;23.378;2023-08-12T08:12:40;10.80;;;6.68;;
6832;SDS011;3454;42.654;23.378;2023-08-12T08:15:06;4.22;;;3.65;;
6832;SDS011;3454;42.654;23.378;2023-08-12T08:17:31;3.05;;;2.78;;
6832;SDS011;3454;42.654;23.378;2023-08-12T08:19:57;4.65;;;2.88;;
6832;SDS011;3454;42.654;23.378;2023-08-12T08:22:23;3.72;;;3.30;;
6832;SDS011;3454;42.654;23.378;2023-08-12T08:24:49;3.70;;;3.13;;
6832;SDS011;3454;42.654;23.378;2023-08-12T08:27:19;4.07;;;3.40;;
6832;SDS011;3454;42.654;23.378;2023-08-12T08:29:44;6.82;;;3.15;;
6832;SDS011;3454;42.654;23.378;2023-08-12T08:32:10;3.13;;;2.72;;
6832;SDS011;3454;42.654;23.378;2023-08-12T08:34:35;5.00;;;3.05;;
6832;SDS011;3454;42.654;23.378;2023-08-12T08:37:01;5.18;;;2.60;;
6832;SDS011;3454;42.654;23.378;2023-08-12T08:39:28;2.85;;;2.58;;
6832;SDS011;3454;42.654;23.378;2023-08-12T08:41:54;2.50;;;2.20;;
6832;SDS011;3454;42.654;23.378;2023-08-12T08:44:21;2.83;;;2.30;;
6832;SDS011;3454;42.654;23.378;2023-08-12T08:46:49;3.22;;;2.00;;
6832;SDS011;3454;42.654;23.378;2023-08-12T08:49:18;2.92;;;2.40;;
6832;SDS011;3454;42.654;23.378;2023-08-12T08:51:45;3.28;;;1.85;;
6832;SDS011;3454;42.654;23.378;2023-08-12T08:54:12;2.28;;;2.08;;
6832;SDS011;3454;42.654;23.378;2023-08-12T08:56:38;2.67;;;2.47;;
6832;SDS011;3454;42.654;23.378;2023-08-12T08:59:04;2.55;;;2.33;;
6832;SDS011;3454;42.654;23.378;2023-08-12T09:01:30;2.90;;;2.33;;
6832;SDS011;3454;42.654;23.378;2023-08-12T09:03:56;6.10;;;2.22;;
6832;SDS011;3454;42.654;23.378;2023-08-12T09:06:26;2.97;;;2.70;;
6832;SDS011;3454;42.654;23.378;2023-08-12T09:08:54;5.22;;;2.45;;
6832;SDS011;3454;42.654;23.378;2023-08-12T09:11:20;3.90;;;2.17;;
6832;SDS011;3454;42.654;23.378;2023-08-12T09:13:46;2.53;;;1.80;;
6832;SDS011;3454;42.654;23.378;2023-08-12T09:16:15;4.38;;;2.85;;
6832;SDS011;3454;42.654;23.378;2023-08-12T09:18:44;3.03;;;2.20;;
6832;SDS011;3454;42.654;23.378;2023-08-12T09:21:10;3.72;;;2.40;;
6832;SDS011;3454;42.654;23.378;2023-08-12T09:23:37;3.42;;;2.67;;
6832;SDS011;3454;42.654;23.378;2023-08-12T09:26:10;2.83;;;2.53;;
6832;SDS011;3454;42.654;23.378;2023-08-12T09:28:40;2.88;;;2.28;;
6832;SDS011;3454;42.654;23.378;2023-08-12T09:31:07;2.72;;;2.20;;
6832;SDS011;3454;42.654;23.378;2023-08-12T09:33:32;4.53;;;2.13;;
6832;SDS011;3454;42.654;23.378;2023-08-12T09:36:04;3.28;;;2.72;;
6832;SDS011;3454;42.654;23.378;2023-08-12T09:38:29;2.20;;;2.00;;
6832;SDS011;3454;42.654;23.378;2023-08-12T09:40:55;5.40;;;3.08;;
6832;SDS011;3454;42.654;23.378;2023-08-12T09:43:27;2.95;;;2.53;;
6832;SDS011;3454;42.654;23.378;2023-08-12T09:45:57;5.88;;;3.25;;
6832;SDS011;3454;42.654;23.378;2023-08-12T09:48:24;3.78;;;2.70;;
6832;SDS011;3454;42.654;23.378;2023-08-12T09:50:50;2.92;;;2.33;;
6832;SDS011;3454;42.654;23.378;2023-08-12T09:53:19;3.22;;;2.83;;
6832;SDS011;3454;42.654;23.378;2023-08-12T09:55:47;3.22;;;2.10;;
6832;SDS011;3454;42.654;23.378;2023-08-12T09:58:15;3.10;;;2.20;;
6832;SDS011;3454;42.654;23.378;2023-08-12T10:00:43;2.53;;;2.00;;
6832;SDS011;3454;42.654;23.378;2023-08-12T10:03:11;7.57;;;5.63;;
6832;SDS011;3454;42.654;23.378;2023-08-12T10:05:41;2.55;;;2.15;;
6832;SDS011;3454;42.654;23.378;2023-08-12T10:08:07;1.88;;;1.75;;
6832;SDS011;3454;42.654;23.378;2023-08-12T10:10:34;4.72;;;1.80;;
6832;SDS011;3454;42.654;23.378;2023-08-12T10:13:01;3.78;;;1.75;;
6832;SDS011;3454;42.654;23.378;2023-08-12T10:15:27;3.17;;;2.45;;
6832;SDS011;3454;42.654;23.378;2023-08-12T10:17:53;2.45;;;1.92;;
6832;SDS011;3454;42.654;23.378;2023-08-12T10:20:22;2.20;;;1.88;;
6832;SDS011;3454;42.654;23.378;2023-08-12T10:22:49;2.83;;;2.40;;
6832;SDS011;3454;42.654;23.378;2023-08-12T10:25:17;4.32;;;1.90;;
6832;SDS011;3454;42.654;23.378;2023-08-12T10:27:47;1.95;;;1.83;;
6832;SDS011;3454;42.654;23.378;2023-08-12T10:30:13;2.35;;;1.67;;
6832;SDS011;3454;42.654;23.378;2023-08-12T10:32:39;4.95;;;1.75;;
6832;SDS011;3454;42.654;23.378;2023-08-12T10:35:05;4.05;;;3.65;;
6832;SDS011;3454;42.654;23.378;2023-08-12T10:37:32;2.50;;;1.90;;
6832;SDS011;3454;42.654;23.378;2023-08-12T10:39:59;5.15;;;3.13;;
6832;SDS011;3454;42.654;23.378;2023-08-12T10:42:45;3.50;;;3.20;;
6832;SDS011;3454;42.654;23.378;2023-08-12T10:45:13;3.28;;;2.42;;
6832;SDS011;3454;42.654;23.378;2023-08-12T10:47:43;1.80;;;1.67;;
6832;SDS011;3454;42.654;23.378;2023-08-12T10:50:17;2.30;;;2.10;;
6832;SDS011;3454;42.654;23.378;2023-08-12T10:52:46;3.08;;;1.88;;
6832;SDS011;3454;42.654;23.378;2023-08-12T10:55:16;4.65;;;1.92;;
6832;SDS011;3454;42.654;23.378;2023-08-12T10:57:47;3.25;;;2.78;;
6832;SDS011;3454;42.654;23.378;2023-08-12T11:00:18;3.50;;;1.95;;
6832;SDS011;3454;42.654;23.378;2023-08-12T11:02:51;2.70;;;1.63;;
6832;SDS011;3454;42.654;23.378;2023-08-12T11:05:18;3.28;;;2.00;;
6832;SDS011;3454;42.654;23.378;2023-08-12T11:10:17;3.15;;;1.95;;
6832;SDS011;3454;42.654;23.378;2023-08-12T11:12:49;2.25;;;1.67;;
6832;SDS011;3454;42.654;23.378;2023-08-12T11:15:34;1.83;;;1.70;;
6832;SDS011;3454;42.654;23.378;2023-08-12T11:18:04;3.40;;;2.40;;
6832;SDS011;3454;42.654;23.378;2023-08-12T11:20:34;5.53;;;3.83;;
6832;SDS011;3454;42.654;23.378;2023-08-12T11:23:01;1.92;;;1.83;;
6832;SDS011;3454;42.654;23.378;2023-08-12T11:25:28;3.38;;;2.92;;
6832;SDS011;3454;42.654;23.378;2023-08-12T11:27:55;3.13;;;1.70;;
6832;SDS011;3454;42.654;23.378;2023-08-12T11:30:21;3.17;;;1.70;;
6832;SDS011;3454;42.654;23.378;2023-08-12T11:32:48;2.38;;;2.17;;
6832;SDS011;3454;42.654;23.378;2023-08-12T11:35:19;9.05;;;6.28;;
6832;SDS011;3454;42.654;23.378;2023-08-12T11:37:46;4.43;;;3.22;;
6832;SDS011;3454;42.654;23.378;2023-08-12T11:40:15;1.67;;;1.58;;
6832;SDS011;3454;42.654;23.378;2023-08-12T11:42:46;2.45;;;1.50;;
6832;SDS011;3454;42.654;23.378;2023-08-12T11:45:14;2.50;;;2.28;;
6832;SDS011;3454;42.654;23.378;2023-08-12T11:47:43;1.30;;;1.20;;
6832;SDS011;3454;42.654;23.378;2023-08-12T11:50:11;1.60;;;1.25;;
6832;SDS011;3454;42.654;23.378;2023-08-12T11:52:39;2.35;;;2.15;;
6832;SDS011;3454;42.654;23.378;2023-08-12T11:55:06;3.33;;;2.30;;
6832;SDS011;3454;42.654;23.378;2023-08-12T11:57:32;3.85;;;1.80;;
6832;SDS011;3454;42.654;23.378;2023-08-12T12:00:03;2.58;;;1.55;;
6832;SDS011;3454;42.654;23.378;2023-08-12T12:02:37;1.60;;;1.50;;
6832;SDS011;3454;42.654;23.378;2023-08-12T12:05:22;1.30;;;1.25;;
6832;SDS011;3454;42.654;23.378;2023-08-12T12:07:50;1.42;;;1.33;;
6832;SDS011;3454;42.654;23.378;2023-08-12T12:12:50;1.67;;;1.38;;
6832;SDS011;3454;42.654;23.378;2023-08-12T12:15:16;3.05;;;1.60;;
6832;SDS011;3454;42.654;23.378;2023-08-12T12:17:44;20.05;;;8.25;;
6832;SDS011;3454;42.654;23.378;2023-08-12T12:20:11;5.40;;;3.55;;
6832;SDS011;3454;42.654;23.378;2023-08-12T12:22:36;1.58;;;1.48;;
6832;SDS011;3454;42.654;23.378;2023-08-12T12:25:06;1.95;;;1.60;;
6832;SDS011;3454;42.654;23.378;2023-08-12T12:27:33;4.07;;;3.60;;
6832;SDS011;3454;42.654;23.378;2023-08-12T12:30:00;1.75;;;1.65;;
6832;SDS011;3454;42.654;23.378;2023-08-12T12:32:26;2.03;;;1.65;;
6832;SDS011;3454;42.654;23.378;2023-08-12T12:34:51;1.90;;;1.80;;
6832;SDS011;3454;42.654;23.378;2023-08-12T12:37:18;4.75;;;1.95;;
6832;SDS011;3454;42.654;23.378;2023-08-12T12:39:43;3.67;;;2.55;;
6832;SDS011;3454;42.654;23.378;2023-08-12T12:42:10;2.33;;;2.10;;
6832;SDS011;3454;42.654;23.378;2023-08-12T12:44:35;1.92;;;1.80;;
6832;SDS011;3454;42.654;23.378;2023-08-12T12:47:01;3.05;;;2.42;;
6832;SDS011;3454;42.654;23.378;2023-08-12T12:49:27;1.92;;;1.83;;
6832;SDS011;3454;42.654;23.378;2023-08-12T12:51:53;1.90;;;1.80;;
6832;SDS011;3454;42.654;23.378;2023-08-12T12:54:26;3.65;;;3.10;;
6832;SDS011;3454;42.654;23.378;2023-08-12T12:56:52;9.27;;;6.13;;
6832;SDS011;3454;42.654;23.378;2023-08-12T12:59:18;4.55;;;2.33;;
6832;SDS011;3454;42.654;23.378;2023-08-12T13:01:44;2.28;;;2.08;;
6832;SDS011;3454;42.654;23.378;2023-08-12T13:04:10;2.85;;;2.13;;
6832;SDS011;3454;42.654;23.378;2023-08-12T13:06:36;4.07;;;3.67;;
6832;SDS011;3454;42.654;23.378;2023-08-12T13:09:02;9.50;;;8.13;;
6832;SDS011;3454;42.654;23.378;2023-08-12T13:11:28;7.00;;;4.03;;
6832;SDS011;3454;42.654;23.378;2023-08-12T13:13:54;2.70;;;2.50;;
6832;SDS011;3454;42.654;23.378;2023-08-12T13:16:20;3.03;;;2.72;;
6832;SDS011;3454;42.654;23.378;2023-08-12T13:18:45;4.78;;;3.97;;
6832;SDS011;3454;42.654;23.378;2023-08-12T13:21:11;1.80;;;1.70;;
6832;SDS011;3454;42.654;23.378;2023-08-12T13:23:36;2.20;;;2.00;;
6832;SDS011;3454;42.654;23.378;2023-08-12T13:26:02;3.08;;;1.70;;
6832;SDS011;3454;42.654;23.378;2023-08-12T13:28:28;3.85;;;2.63;;
6832;SDS011;3454;42.654;23.378;2023-08-12T13:30:55;3.95;;;2.35;;
6832;SDS011;3454;42.654;23.378;2023-08-12T13:33:21;4.70;;;2.67;;
6832;SDS011;3454;42.654;23.378;2023-08-12T13:35:46;5.30;;;3.17;;
6832;SDS011;3454;42.654;23.378;2023-08-12T13:38:12;2.40;;;2.03;;
6832;SDS011;3454;42.654;23.378;2023-08-12T13:40:37;2.47;;;2.28;;
6832;SDS011;3454;42.654;23.378;2023-08-12T13:43:03;7.90;;;2.33;;
6832;SDS011;3454;42.654;23.378;2023-08-12T13:45:29;2.65;;;2.10;;
6832;SDS011;3454;42.654;23.378;2023-08-12T13:47:55;4.15;;;2.47;;
6832;SDS011;3454;42.654;23.378;2023-08-12T13:50:20;2.00;;;1.67;;
6832;SDS011;3454;42.654;23.378;2023-08-12T13:52:46;3.05;;;1.98;;
6832;SDS011;3454;42.654;23.378;2023-08-12T13:55:13;2.30;;;2.10;;
6832;SDS011;3454;42.654;23.378;2023-08-12T13:57:38;2.97;;;2.33;;
6832;SDS011;3454;42.654;23.378;2023-08-12T14:00:04;2.10;;;1.90;;
6832;SDS011;3454;42.654;23.378;2023-08-12T14:02:38;2.15;;;1.95;;
6832;SDS011;3454;42.654;23.378;2023-08-12T14:05:05;2.08;;;1.88;;
6832;SDS011;3454;42.654;23.378;2023-08-12T14:07:32;4.28;;;1.95;;
6832;SDS011;3454;42.654;23.378;2023-08-12T14:10:00;2.28;;;1.60;;
6832;SDS011;3454;42.654;23.378;2023-08-12T14:12:26;2.95;;;1.90;;
6832;SDS011;3454;42.654;23.378;2023-08-12T14:14:51;2.35;;;1.88;;
6832;SDS011;3454;42.654;23.378;2023-08-12T14:17:17;2.05;;;1.70;;
6832;SDS011;3454;42.654;23.378;2023-08-12T14:19:44;1.55;;;1.42;;
6832;SDS011;3454;42.654;23.378;2023-08-12T14:22:12;2.22;;;1.70;;
6832;SDS011;3454;42.654;23.378;2023-08-12T14:24:38;2.30;;;1.85;;
6832;SDS011;3454;42.654;23.378;2023-08-12T14:27:04;1.98;;;1.88;;
6832;SDS011;3454;42.654;23.378;2023-08-12T14:29:30;3.10;;;2.00;;
6832;SDS011;3454;42.654;23.378;2023-08-12T14:31:56;3.05;;;1.67;;
6832;SDS011;3454;42.654;23.378;2023-08-12T14:34:22;1.77;;;1.67;;
6832;SDS011;3454;42.654;23.378;2023-08-12T14:36:49;4.50;;;1.70;;
6832;SDS011;3454;42.654;23.378;2023-08-12T14:39:14;1.83;;;1.73;;
6832;SDS011;3454;42.654;23.378;2023-08-12T14:41:39;2.15;;;1.85;;
6832;SDS011;3454;42.654;23.378;2023-08-12T14:44:13;2.50;;;1.65;;
6832;SDS011;3454;42.654;23.378;2023-08-12T14:46:40;4.75;;;1.70;;
6832;SDS011;3454;42.654;23.378;2023-08-12T14:49:05;2.70;;;2.15;;
6832;SDS011;3454;42.654;23.378;2023-08-12T14:51:30;2.35;;;1.80;;
6832;SDS011;3454;42.654;23.378;2023-08-12T14:53:56;1.65;;;1.55;;
6832;SDS011;3454;42.654;23.378;2023-08-12T14:56:22;1.67;;;1.58;;
6832;SDS011;3454;42.654;23.378;2023-08-12T14:58:47;2.33;;;1.75;;
6832;SDS011;3454;42.654;23.378;2023-08-12T15:01:12;2.25;;;2.05;;
6832;SDS011;3454;42.654;23.378;2023-08-12T15:03:38;2.60;;;2.08;;
6832;SDS011;3454;42.654;23.378;2023-08-12T15:06:06;2.15;;;1.95;;